Saxaren — SKHW — position and weather

sailwx.info

Track history (hours):
 
Tides and Currents Weather Stations Pressure Air Temp Water Temp Dewpoint Dewpoint Depression Visibility Wind Speed Wind Dir Waves Ship Positions

Saxaren

Last reported at 2015-May-22 07:09 UTC. Time now 2015-May-24 11:13 UTC.
Position N 59°19' E 018°06'.

Length 38 m; draft 1.8 m.

Type: Passenger vessel. MMSI: 265512110.

Date/timePositionNaut miles runAvg speedWind from/ knotsBaromVisibWave heightAir tempDewpointWater temp
2015-May-22 07:09N 59°19' E 018°06'1 2.0
2015-May-22 06:33N 59°20' E 018°05'0 0.0
2015-May-22 05:33N 59°20' E 018°05'0 0.0
2015-May-22 04:33N 59°20' E 018°05'0 0.0
2015-May-22 03:34N 59°20' E 018°05'0 0.0
2015-May-22 02:34N 59°20' E 018°05'0 0.0
2015-May-22 01:33N 59°20' E 018°05'0 0.0
2015-May-22 00:33N 59°20' E 018°05'0 0.0
2015-May-21 23:33N 59°20' E 018°05'0 0.0
2015-May-21 22:33N 59°20' E 018°05'0 0.0
2015-May-21 21:33N 59°20' E 018°05'0 0.0
2015-May-21 20:33N 59°20' E 018°05'0 0.0
2015-May-21 19:33N 59°20' E 018°05'0 0.0
2015-May-21 18:33N 59°20' E 018°05'1 0.1
2015-May-21 09:11N 59°19' E 018°07'1 2.0
2015-May-21 08:30N 59°20' E 018°05'0 0.0
2015-May-21 07:16N 59°20' E 018°05'0 0.0
2015-May-21 06:33N 59°20' E 018°05'0 0.0
2015-May-21 05:32N 59°20' E 018°05'0 0.0
2015-May-21 04:33N 59°20' E 018°05'0 0.0
2015-May-21 03:33N 59°20' E 018°05'0 0.0
2015-May-21 02:33N 59°20' E 018°05'0 0.0
2015-May-21 01:33N 59°20' E 018°05'0 0.0
2015-May-21 00:33N 59°20' E 018°05'0 0.0
2015-May-20 23:33N 59°20' E 018°05'0 0.0
2015-May-20 22:29N 59°20' E 018°05'0 0.0
2015-May-20 21:29N 59°20' E 018°05'0 0.0
2015-May-20 20:33N 59°20' E 018°05'0 0.0
2015-May-20 19:33N 59°20' E 018°05'0 0.0
2015-May-20 18:29N 59°20' E 018°05'0 0.0
2015-May-20 17:05N 59°20' E 018°05'0 0.0
2015-May-20 16:33N 59°20' E 018°05'0 0.0
2015-May-20 06:33N 59°19' E 018°05'0 0.3
2015-May-20 05:33N 59°20' E 018°05'0 0.0
2015-May-20 04:33N 59°20' E 018°05'0 0.0
2015-May-20 03:33N 59°20' E 018°05'0 0.0
2015-May-20 02:33N 59°20' E 018°05'0 0.0
2015-May-20 01:33N 59°20' E 018°05'0 0.0
2015-May-20 00:33N 59°20' E 018°05'0 0.0
2015-May-19 23:33N 59°20' E 018°05'0 0.0
2015-May-19 22:33N 59°20' E 018°05'0 0.0
2015-May-19 21:33N 59°20' E 018°05'0 0.0
2015-May-19 20:33N 59°20' E 018°05'0 0.0
2015-May-19 19:33N 59°20' E 018°05'0 0.0
2015-May-19 18:05N 59°20' E 018°05'0 0.0
2015-May-19 17:29N 59°20' E 018°05'0 0.0
2015-May-19 16:16N 59°20' E 018°05'0 0.0
2015-May-19 06:33N 59°19' E 018°05'0 0.4
2015-May-19 05:34N 59°20' E 018°04'0 0.0
2015-May-19 04:33N 59°20' E 018°04'0 0.0
2015-May-19 03:34N 59°20' E 018°04'0 0.0
2015-May-19 02:34N 59°20' E 018°04'0 0.0
2015-May-19 01:33N 59°20' E 018°04'0 0.0
2015-May-19 00:34N 59°20' E 018°04'0 0.0
2015-May-18 23:34N 59°20' E 018°04'0 0.0
2015-May-18 22:34N 59°20' E 018°04'0 0.0
2015-May-18 21:34N 59°20' E 018°04'0 0.0
2015-May-18 20:34N 59°20' E 018°04'0 0.0
2015-May-18 19:34N 59°20' E 018°04'0 0.0
2015-May-18 18:34N 59°20' E 018°04'0 0.0
2015-May-18 17:33N 59°20' E 018°04'0 0.0
2015-May-18 16:33N 59°20' E 018°04'0 0.0
2015-May-17 18:27N 59°20' E 018°05'0 0.0
2015-May-17 17:19N 59°20' E 018°05'  
2015-May-15 07:10N 59°19' E 018°07'1 2.2
2015-May-15 06:33N 59°20' E 018°04'0 0.0
2015-May-15 05:33N 59°20' E 018°04'0 0.0
2015-May-15 04:34N 59°20' E 018°05'0 0.0
2015-May-15 03:33N 59°20' E 018°05'0 0.0
2015-May-15 02:34N 59°20' E 018°04'0 0.0
2015-May-15 01:33N 59°20' E 018°04'0 0.0
2015-May-15 00:34N 59°20' E 018°04'0 0.0
2015-May-14 23:34N 59°20' E 018°05'0 0.0
2015-May-14 22:34N 59°20' E 018°04'0 0.0
2015-May-14 21:33N 59°20' E 018°05'0 0.0
2015-May-14 20:34N 59°20' E 018°05'0 0.0
2015-May-14 19:34N 59°20' E 018°04'0 0.0
2015-May-14 18:33N 59°20' E 018°05'0 0.0
2015-May-14 17:34N 59°20' E 018°05'1 0.0
2015-May-13 07:10N 59°19' E 018°07'1 2.1
2015-May-13 06:33N 59°20' E 018°05'0 0.0
2015-May-13 05:33N 59°20' E 018°05'0 0.0
2015-May-13 04:21N 59°20' E 018°05'0 0.0
2015-May-13 03:33N 59°20' E 018°05'0 0.0
2015-May-13 02:33N 59°20' E 018°05'0 0.0
2015-May-13 01:33N 59°20' E 018°05'0 0.0
2015-May-13 00:33N 59°20' E 018°05'0 0.0
2015-May-12 23:33N 59°20' E 018°05'0 0.0
2015-May-12 22:33N 59°20' E 018°05'0 0.0
2015-May-12 21:33N 59°20' E 018°05'0 0.0
2015-May-12 20:33N 59°20' E 018°05'0 0.0
2015-May-12 19:33N 59°20' E 018°05'0 0.0
2015-May-12 18:33N 59°20' E 018°05'0 0.0
2015-May-12 17:31N 59°20' E 018°05'0 0.0
2015-May-12 16:33N 59°20' E 018°05'7 7.1
2015-May-12 15:31N 59°23' E 018°18'1 0.1
2015-May-12 07:17N 59°23' E 018°19'  
Track history (hours):
 
Tides and Currents Weather Stations Pressure Air Temp Water Temp Dewpoint Dewpoint Depression Visibility Wind Speed Wind Dir Waves Ship Positions

Saxaren

Last reported at 2015-May-22 07:09 UTC. Time now 2015-May-24 11:13 UTC.
Position N 59°19' E 018°06'.

Length 38 m; draft 1.8 m.

Type: Passenger vessel. MMSI: 265512110.

Date/timePositionNaut miles runAvg speedWind from/ knotsBaromVisibWave heightAir tempDewpointWater temp
2015-May-22 07:09N 59°19' E 018°06'1 2.0
2015-May-22 06:33N 59°20' E 018°05'0 0.0
2015-May-22 05:33N 59°20' E 018°05'0 0.0
2015-May-22 04:33N 59°20' E 018°05'0 0.0
2015-May-22 03:34N 59°20' E 018°05'0 0.0
2015-May-22 02:34N 59°20' E 018°05'0 0.0
2015-May-22 01:33N 59°20' E 018°05'0 0.0
2015-May-22 00:33N 59°20' E 018°05'0 0.0
2015-May-21 23:33N 59°20' E 018°05'0 0.0
2015-May-21 22:33N 59°20' E 018°05'0 0.0
2015-May-21 21:33N 59°20' E 018°05'0 0.0
2015-May-21 20:33N 59°20' E 018°05'0 0.0
2015-May-21 19:33N 59°20' E 018°05'0 0.0
2015-May-21 18:33N 59°20' E 018°05'1 0.1
2015-May-21 09:11N 59°19' E 018°07'1 2.0
2015-May-21 08:30N 59°20' E 018°05'0 0.0
2015-May-21 07:16N 59°20' E 018°05'0 0.0
2015-May-21 06:33N 59°20' E 018°05'0 0.0
2015-May-21 05:32N 59°20' E 018°05'0 0.0
2015-May-21 04:33N 59°20' E 018°05'0 0.0
2015-May-21 03:33N 59°20' E 018°05'0 0.0
2015-May-21 02:33N 59°20' E 018°05'0 0.0
2015-May-21 01:33N 59°20' E 018°05'0 0.0
2015-May-21 00:33N 59°20' E 018°05'0 0.0
2015-May-20 23:33N 59°20' E 018°05'0 0.0
2015-May-20 22:29N 59°20' E 018°05'0 0.0
2015-May-20 21:29N 59°20' E 018°05'0 0.0
2015-May-20 20:33N 59°20' E 018°05'0 0.0
2015-May-20 19:33N 59°20' E 018°05'0 0.0
2015-May-20 18:29N 59°20' E 018°05'0 0.0
2015-May-20 17:05N 59°20' E 018°05'0 0.0
2015-May-20 16:33N 59°20' E 018°05'0 0.0
2015-May-20 06:33N 59°19' E 018°05'0 0.3
2015-May-20 05:33N 59°20' E 018°05'0 0.0
2015-May-20 04:33N 59°20' E 018°05'0 0.0
2015-May-20 03:33N 59°20' E 018°05'0 0.0
2015-May-20 02:33N 59°20' E 018°05'0 0.0
2015-May-20 01:33N 59°20' E 018°05'0 0.0
2015-May-20 00:33N 59°20' E 018°05'0 0.0
2015-May-19 23:33N 59°20' E 018°05'0 0.0
2015-May-19 22:33N 59°20' E 018°05'0 0.0
2015-May-19 21:33N 59°20' E 018°05'0 0.0
2015-May-19 20:33N 59°20' E 018°05'0 0.0
2015-May-19 19:33N 59°20' E 018°05'0 0.0
2015-May-19 18:05N 59°20' E 018°05'0 0.0
2015-May-19 17:29N 59°20' E 018°05'0 0.0
2015-May-19 16:16N 59°20' E 018°05'0 0.0
2015-May-19 06:33N 59°19' E 018°05'0 0.4
2015-May-19 05:34N 59°20' E 018°04'0 0.0
2015-May-19 04:33N 59°20' E 018°04'0 0.0
2015-May-19 03:34N 59°20' E 018°04'0 0.0
2015-May-19 02:34N 59°20' E 018°04'0 0.0
2015-May-19 01:33N 59°20' E 018°04'0 0.0
2015-May-19 00:34N 59°20' E 018°04'0 0.0
2015-May-18 23:34N 59°20' E 018°04'0 0.0
2015-May-18 22:34N 59°20' E 018°04'0 0.0
2015-May-18 21:34N 59°20' E 018°04'0 0.0
2015-May-18 20:34N 59°20' E 018°04'0 0.0
2015-May-18 19:34N 59°20' E 018°04'0 0.0
2015-May-18 18:34N 59°20' E 018°04'0 0.0
2015-May-18 17:33N 59°20' E 018°04'0 0.0
2015-May-18 16:33N 59°20' E 018°04'0 0.0
2015-May-17 18:27N 59°20' E 018°05'0 0.0
2015-May-17 17:19N 59°20' E 018°05'  
2015-May-15 07:10N 59°19' E 018°07'1 2.2
2015-May-15 06:33N 59°20' E 018°04'0 0.0
2015-May-15 05:33N 59°20' E 018°04'0 0.0
2015-May-15 04:34N 59°20' E 018°05'0 0.0
2015-May-15 03:33N 59°20' E 018°05'0 0.0
2015-May-15 02:34N 59°20' E 018°04'0 0.0
2015-May-15 01:33N 59°20' E 018°04'0 0.0
2015-May-15 00:34N 59°20' E 018°04'0 0.0
2015-May-14 23:34N 59°20' E 018°05'0 0.0
2015-May-14 22:34N 59°20' E 018°04'0 0.0
2015-May-14 21:33N 59°20' E 018°05'0 0.0
2015-May-14 20:34N 59°20' E 018°05'0 0.0
2015-May-14 19:34N 59°20' E 018°04'0 0.0
2015-May-14 18:33N 59°20' E 018°05'0 0.0
2015-May-14 17:34N 59°20' E 018°05'1 0.0
2015-May-13 07:10N 59°19' E 018°07'1 2.1
2015-May-13 06:33N 59°20' E 018°05'0 0.0
2015-May-13 05:33N 59°20' E 018°05'0 0.0
2015-May-13 04:21N 59°20' E 018°05'0 0.0
2015-May-13 03:33N 59°20' E 018°05'0 0.0
2015-May-13 02:33N 59°20' E 018°05'0 0.0
2015-May-13 01:33N 59°20' E 018°05'0 0.0
2015-May-13 00:33N 59°20' E 018°05'0 0.0
2015-May-12 23:33N 59°20' E 018°05'0 0.0
2015-May-12 22:33N 59°20' E 018°05'0 0.0
2015-May-12 21:33N 59°20' E 018°05'0 0.0
2015-May-12 20:33N 59°20' E 018°05'0 0.0
2015-May-12 19:33N 59°20' E 018°05'0 0.0
2015-May-12 18:33N 59°20' E 018°05'0 0.0
2015-May-12 17:31N 59°20' E 018°05'0 0.0
2015-May-12 16:33N 59°20' E 018°05'7 7.1
2015-May-12 15:31N 59°23' E 018°18'1 0.1
2015-May-12 07:17N 59°23' E 018°19'  

Dump ship's entire track history